Latest Weather Observations for Terrey Hills

IDN60801

Issued at 9:52 pm EST Monday 18 June 2018 (issued every 10 minutes, with the page automatically refreshed every 10 minutes)

About weather observations | Map of weather stations | Latest weather observations for NSW | Other Formats
Station Details ID: 066059 Name: TERREY HILLS AWS Lat: -33.69 Lon: 151.23 Height: 199.0 m
Data from the previous 72 hours. | See also: Recent months at Terrey Hills
Date/Time
EST
Temp
°C
App
Temp
°C
Dew
Point
°C
Rel
Hum
%
Delta-T
°C
Wind Press
QNH
hPa
Press
MSL
hPa
Rain since
9am
mm
Dir  Spd
km/h
Gust
km/h
Spd
kts
Gust
kts
18/09:30pm 10.3 7.1 7.0 80 1.6 SW 13 26 7 14 - - 0.6
18/09:00pm 10.1 7.7 7.0 81 1.5 WSW 9 17 5 9 - - 0.6
18/08:30pm 10.3 7.5 8.6 89 0.8 SW 13 30 7 16 - - 0.6
18/08:00pm 10.2 7.2 9.3 94 0.5 SSW 15 24 8 13 - - 0.6
18/07:30pm 9.8 6.5 9.7 99 0.1 SSW 17 44 9 24 - - 0.6
18/07:00pm 9.8 4.7 9.3 97 0.3 SSW 26 44 14 24 - - 0.4
18/06:30pm 11.3 8.4 9.6 89 0.9 SSW 15 24 8 13 - - 0.4
18/06:00pm 10.6 8.0 9.5 93 0.6 S 13 22 7 12 - - 0.4
18/05:30pm 11.1 6.7 9.0 87 1.1 SSE 22 44 12 24 - - 0.4
18/05:00pm 12.1 7.3 7.4 73 2.3 S 22 52 12 28 - - 0.4
18/04:30pm 13.2 9.2 5.1 58 3.8 SSW 15 30 8 16 - - 0.4
18/04:00pm 13.6 8.9 5.0 56 4.0 SSW 19 33 10 18 - - 0.4
18/03:30pm 14.1 9.6 6.0 58 3.9 SSW 19 33 10 18 - - 0.4
18/03:00pm 13.1 10.1 7.8 70 2.6 SSW 13 24 7 13 - - 0.4
18/02:30pm 12.6 9.0 8.3 75 2.2 SSW 17 28 9 15 - - 0.4
18/02:00pm 14.3 9.6 6.2 58 3.9 SSW 20 33 11 18 - - 0.2
18/01:30pm 13.6 8.6 6.5 62 3.4 SSW 22 35 12 19 - - 0.2
18/01:00pm 13.4 8.9 7.0 65 3.1 SW 20 37 11 20 - - 0.0
18/12:30pm 12.9 8.6 7.1 68 2.8 SW 19 30 10 16 - - 0.0
18/12:00pm 12.3 7.7 6.6 68 2.7 SW 20 35 11 19 - - 0.0
18/11:30am 12.1 8.5 6.6 69 2.6 SW 15 30 8 16 - - 0.0
18/11:00am 11.6 7.1 5.9 68 2.7 SW 19 37 10 20 - - 0.0
18/10:30am 11.3 6.5 5.8 69 2.6 SW 20 39 11 21 - - 0.0
18/10:00am 10.7 5.9 5.5 70 2.4 SW 20 35 11 19 - - 0.0
18/09:30am 10.5 4.9 5.5 71 2.3 WSW 24 43 13 23 - - 0.0
18/09:00am 10.0 5.2 5.4 73 2.1 WSW 20 30 11 16 - - 0.0
18/08:30am 9.8 4.7 5.8 76 1.9 SW 22 35 12 19 - - 0.0
18/08:00am 9.6 4.4 5.6 76 1.8 SW 22 39 12 21 - - 0.0
18/07:30am 9.2 3.7 5.9 80 1.5 SW 24 37 13 20 - - 0.0
18/07:00am 8.3 2.5 6.3 87 0.9 WSW 26 43 14 23 - - 0.0
18/06:30am 9.2 4.5 5.0 75 1.9 WSW 19 35 10 19 - - 0.0
18/06:00am 8.9 4.1 4.9 76 1.8 WSW 19 32 10 17 - - 0.0
18/05:30am 9.3 4.4 3.9 69 2.4 WSW 19 32 10 17 - - 0.0
18/05:00am 9.4 4.2 3.6 67 2.5 WSW 20 33 11 18 - - 0.0
18/04:30am 9.3 4.4 3.9 69 2.4 WSW 19 33 10 18 - - 0.0
18/04:00am 9.4 4.7 3.4 66 2.6 WSW 17 28 9 15 - - 0.0
18/03:30am 9.3 5.1 3.7 68 2.5 WSW 15 28 8 15 - - 0.0
18/03:00am 9.6 5.5 4.2 69 2.4 WSW 15 32 8 17 - - 0.0
18/02:30am 8.7 5.8 4.7 76 1.8 W 9 20 5 11 - - 0.0
18/02:00am 8.8 6.1 3.6 70 2.3 W 7 13 4 7 - - 0.0
18/01:30am 8.6 5.8 3.2 69 2.3 W 7 13 4 7 - - 0.0
18/01:00am 8.9 5.9 2.3 63 2.8 WNW 7 13 4 7 - - 0.0
18/12:30am 9.1 6.1 2.0 61 3.0 WNW 7 13 4 7 - - 0.0
18/12:00am 9.2 6.2 1.9 60 3.1 WNW 7 19 4 10 - - 0.0
 
Date/Time
EST
Temp
°C
App
Temp
°C
Dew
Point
°C
Rel
Hum
%
Delta-T
°C
Wind Press
QNH
hPa
Press
MSL
hPa
Rain since
9am
mm
Dir  Spd
km/h
Gust
km/h
Spd
kts
Gust
kts
17/11:30pm 9.1 5.6 1.3 58 3.2 WNW 9 19 5 10 - - 0.0
17/11:00pm 9.2 5.3 1.4 58 3.3 WNW 11 24 6 13 - - 0.0
17/10:30pm 9.1 5.2 1.0 57 3.3 WNW 11 22 6 12 - - 0.0
17/10:00pm 9.1 4.8 1.0 57 3.3 WNW 13 28 7 15 - - 0.0
17/09:30pm 9.3 4.6 0.7 55 3.5 WNW 15 26 8 14 - - 0.0
17/09:00pm 9.7 5.0 0.6 53 3.7 WNW 15 30 8 16 - - 0.0
17/08:30pm 9.7 4.6 0.6 53 3.7 WNW 17 32 9 17 - - 0.0
17/08:00pm 9.9 4.4 0.8 53 3.8 WNW 19 39 10 21 - - 0.0
17/07:30pm 9.7 5.0 0.6 53 3.7 WNW 15 28 8 15 - - 0.0
17/07:00pm 10.1 4.9 0.4 51 4.0 WNW 17 37 9 20 - - 0.0
17/06:30pm 9.6 5.2 0.5 53 3.7 WNW 13 24 7 13 - - 0.0
17/06:00pm 9.6 4.8 0.2 52 3.8 WNW 15 33 8 18 - - 0.0
17/05:30pm 9.9 4.7 0.0 50 4.0 WNW 17 32 9 17 - - 0.0
17/05:00pm 10.4 4.8 -0.1 48 4.3 WNW 19 33 10 18 - - 0.0
17/04:30pm 11.2 7.1 -0.3 45 4.7 WNW 11 26 6 14 - - 0.0
17/04:00pm 12.1 6.4 -0.7 41 5.2 W 19 43 10 23 - - 0.0
17/03:30pm 12.6 6.8 -1.3 38 5.6 W 19 37 10 20 - - 0.0
17/03:00pm 12.8 7.9 -0.8 39 5.6 WNW 15 30 8 16 - - 0.0
17/02:30pm 13.1 7.1 -1.6 36 5.9 W 20 39 11 21 - - 0.0
17/02:00pm 12.9 6.1 -1.8 36 5.9 W 24 44 13 24 - - 0.0
17/01:30pm 13.1 6.7 -2.0 35 6.1 W 22 44 12 24 - - 0.0
17/01:00pm 12.9 5.6 -2.6 34 6.1 W 26 50 14 27 - - 0.0
17/12:30pm 12.8 5.9 -3.0 33 6.2 W 24 50 13 27 - - 0.0
17/12:00pm 12.7 6.3 -1.6 37 5.8 WNW 22 43 12 23 - - 0.0
17/11:30am 12.5 7.1 -1.4 38 5.6 WNW 17 30 9 16 - - 0.0
17/11:00am 11.9 6.0 -0.9 41 5.2 WNW 20 39 11 21 - - 0.0
17/10:30am 11.6 5.8 -0.2 44 4.9 WNW 20 37 11 20 - - 0.0
17/10:00am 11.0 6.2 0.1 47 4.5 WNW 15 33 8 18 - - 0.0
17/09:30am 10.4 5.6 -0.1 48 4.3 WNW 15 32 8 17 - - 0.0
17/09:00am 9.8 5.3 -0.4 49 4.1 WNW 13 30 7 16 - - 0.0
17/08:30am 9.0 3.7 -0.3 52 3.7 NW 17 30 9 16 - - 0.0
17/08:00am 8.0 3.5 -0.5 55 3.3 WNW 13 22 7 12 - - 0.0
17/07:30am 6.8 3.4 -0.9 58 3.0 NW 7 15 4 8 - - 0.0
17/07:00am 7.3 3.5 -1.1 55 3.2 WNW 9 22 5 12 - - 0.0
17/06:30am 7.2 3.0 -0.7 57 3.1 WNW 11 24 6 13 - - 0.0
17/06:00am 7.3 3.5 -0.9 56 3.2 WNW 9 19 5 10 - - 0.0
17/05:30am 7.3 2.8 -0.6 57 3.1 NW 13 26 7 14 - - 0.0
17/05:00am 7.5 2.9 -0.7 56 3.2 NW 13 20 7 11 - - 0.0
17/04:30am 7.4 3.2 -0.8 56 3.2 WNW 11 20 6 11 - - 0.0
17/04:00am 7.7 3.6 -0.5 56 3.2 NW 11 24 6 13 - - 0.0
17/03:30am 7.9 3.8 -0.3 56 3.2 NW 11 24 6 13 - - 0.0
17/03:00am 7.7 4.0 -0.3 57 3.2 NW 9 22 5 12 - - 0.0
17/02:30am 8.1 3.6 -0.1 56 3.3 NW 13 22 7 12 - - 0.0
17/02:00am 8.4 4.3 -0.1 55 3.4 NW 11 24 6 13 - - 0.0
17/01:30am 8.8 4.7 -0.2 53 3.6 NW 11 22 6 12 - - 0.0
17/01:00am 8.9 4.1 0.1 54 3.5 NW 15 28 8 15 - - 0.0
17/12:30am 8.8 5.2 0.3 55 3.4 WNW 9 15 5 8 - - 0.0
17/12:00am 9.5 5.5 0.4 53 3.7 WNW 11 24 6 13 - - 0.0
 
Date/Time
EST
Temp
°C
App
Temp
°C
Dew
Point
°C
Rel
Hum
%
Delta-T
°C
Wind Press
QNH
hPa
Press
MSL
hPa
Rain since
9am
mm
Dir  Spd
km/h
Gust
km/h
Spd
kts
Gust
kts
16/11:30pm 9.6 6.0 0.8 54 3.6 WNW 9 19 5 10 - - 0.0
16/11:00pm 9.8 6.1 0.2 51 3.9 WNW 9 17 5 9 - - 0.0
16/10:30pm 10.2 6.4 -0.6 47 4.3 WNW 9 19 5 10 - - 0.0
16/10:00pm 10.6 6.8 -0.8 45 4.6 WNW 9 17 5 9 - - 0.0
16/09:30pm 10.6 6.8 -0.8 45 4.6 NW 9 19 5 10 - - 0.0
16/09:00pm 10.5 7.0 -1.2 44 4.6 NW 7 13 4 7 - - 0.0
16/08:30pm 10.1 7.2 -1.3 45 4.5 NW 4 9 2 5 - - 0.0
16/08:00pm 11.0 7.6 -1.7 41 5.0 WNW 6 13 3 7 - - 0.0
16/07:30pm 11.5 7.2 -1.6 40 5.2 NW 11 22 6 12 - - 0.0
16/07:00pm 11.8 8.2 -2.0 38 5.5 WNW 7 17 4 9 - - 0.0
16/06:30pm 12.2 8.2 -2.0 37 5.6 WNW 9 22 5 12 - - 0.0
16/06:00pm 12.5 7.8 -2.1 36 5.8 WNW 13 26 7 14 - - 0.0
16/05:30pm 12.9 7.4 -2.2 35 6.0 WNW 17 32 9 17 - - 0.0
16/05:00pm 13.1 8.4 -2.0 35 6.1 WNW 13 30 7 16 - - 0.0
16/04:30pm 13.9 8.4 -2.1 33 6.5 WNW 17 37 9 20 - - 0.0
16/04:00pm 14.9 10.8 -3.0 29 7.2 WNW 9 22 5 12 - - 0.0
16/03:30pm 15.7 10.7 -1.4 31 7.1 WNW 15 32 8 17 - - 0.0
16/03:00pm 15.6 9.8 -1.4 31 7.1 WNW 19 37 10 20 - - 0.0
16/02:30pm 15.7 9.7 -1.8 30 7.2 WNW 20 41 11 22 - - 0.0
16/02:00pm 15.5 9.7 -1.5 31 7.1 W 19 43 10 23 - - 0.0
16/01:30pm 15.5 9.7 -1.5 31 7.1 WNW 19 37 10 20 - - 0.0
16/01:00pm 15.6 9.8 -1.4 31 7.1 WNW 19 41 10 22 - - 0.0
16/12:30pm 15.3 9.5 -1.7 31 7.0 WNW 19 35 10 19 - - 0.0
16/12:00pm 15.2 10.3 -0.5 34 6.6 WNW 15 37 8 20 - - 0.0
16/11:30am 14.8 10.7 -0.5 35 6.4 WNW 11 24 6 13 - - 0.0
16/11:00am 14.4 9.9 -0.1 37 6.1 WNW 13 22 7 12 - - 0.0
16/10:30am 14.2 10.5 -0.3 37 6.1 NW 9 17 5 9 - - 0.0
16/10:00am 13.5 10.2 0.2 40 5.6 NW 7 13 4 7 - - 0.0
16/09:30am 13.0 10.4 0.7 43 5.2 NNW 4 9 2 5 - - 0.0
16/09:00am 12.8 9.8 0.5 43 5.2 NW 6 11 3 6 - - 0.0
16/08:30am 11.4 8.2 0.5 47 4.5 NW 7 15 4 8 - - 0.0
16/08:00am 10.3 6.9 -0.5 47 4.4 NW 7 15 4 8 - - 0.0
16/07:30am 9.3 5.9 -0.3 51 3.8 NW 7 17 4 9 - - 0.0
16/07:00am 8.1 4.9 -0.4 55 3.4 NW 6 11 3 6 - - 0.0
16/06:30am 8.5 5.1 -0.3 54 3.5 WNW 7 13 4 7 - - 0.0
16/06:00am 8.8 5.5 0.0 54 3.5 NW 7 13 4 7 - - 0.0
16/05:30am 8.8 5.5 0.3 55 3.4 NW 7 13 4 7 - - 0.0
16/05:00am 8.9 5.3 0.4 55 3.4 NNW 9 15 5 8 - - 0.0
16/04:30am 8.9 5.8 0.4 55 3.4 NW 6 9 3 5 - - 0.0
16/04:00am 9.2 5.5 0.1 53 3.7 NW 9 19 5 10 - - 0.0
16/03:30am 9.5 6.2 0.1 52 3.8 NNW 7 11 4 6 - - 0.0
16/03:00am 9.7 6.1 0.3 52 3.8 N 9 15 5 8 - - 0.0
16/02:30am 10.2 6.6 0.3 50 4.1 NNW 9 17 5 9 - - 0.0
16/02:00am 10.2 6.9 0.3 50 4.1 N 7 11 4 6 - - 0.0
16/01:30am 9.9 6.6 0.3 51 3.9 NW 7 11 4 6 - - 0.0
16/01:00am 10.5 7.2 0.3 49 4.2 NNW 7 11 4 6 - - 0.0
16/12:30am 10.4 7.3 0.2 49 4.2 WNW 6 15 3 8 - - 0.0
16/12:00am 11.1 8.0 -0.1 46 4.6 WNW 6 15 3 8 - - 0.0
 
Date/Time
EST
Temp
°C
App
Temp
°C
Dew
Point
°C
Rel
Hum
%
Delta-T
°C
Wind Press
QNH
hPa
Press
MSL
hPa
Rain since
9am
mm
Dir  Spd
km/h
Gust
km/h
Spd
kts
Gust
kts
15/11:30pm 11.1 8.0 -0.1 46 4.6 WNW 6 15 3 8 - - 0.0
15/11:00pm 11.4 7.4 0.5 47 4.5 WNW 11 26 6 14 - - 0.0
15/10:30pm 11.9 7.5 0.4 45 4.8 WNW 13 22 7 12 - - 0.0
15/10:00pm 12.1 6.6 0.5 45 4.9 WNW 19 33 10 18 - - 0.0

Other Formats:

Comma delimited format used in spreadsheet applications
http://www.bom.gov.au/fwo/IDN60801/IDN60801.94759.axf

JavaScript Object Notation format (JSON) in row-major order
http://www.bom.gov.au/fwo/IDN60801/IDN60801.94759.json